Time;durP1;ratioP1;P1;durP2;ratioP2;P2;SDS_P1;SDS_P2;PMS_P1;PMS_P2;Temp;Humidity;BMP_temperature;BMP_pressure;BME280_temperature;BME280_humidity;BME280_pressure;Samples;Min_cycle;Max_cycle;Signal;HPM_P1;HPM_P2
2023/12/06 00:01:08;;;;;;;42.50;38.60;;;;;;;;;;5111818;28;20104;-69
2023/12/06 00:03:34;;;;;;;42.20;38.25;;;;;;;;;;5076236;28;20055;-70
2023/12/06 00:06:00;;;;;;;41.42;37.53;;;;;;;;;;5091305;28;20074;-70
2023/12/06 00:08:27;;;;;;;41.20;37.20;;;;;;;;;;5113085;28;20412;-70
2023/12/06 00:10:53;;;;;;;39.70;35.90;;;;;;;;;;5091983;28;20048;-70
2023/12/06 00:13:19;;;;;;;39.13;35.33;;;;;;;;;;5093865;28;20047;-70
2023/12/06 00:15:45;;;;;;;38.88;34.85;;;;;;;;;;5092430;28;20145;-71
2023/12/06 00:18:11;;;;;;;38.80;34.85;;;;;;;;;;5092926;28;20063;-70
2023/12/06 00:20:37;;;;;;;37.58;33.95;;;;;;;;;;5094742;28;20491;-71
2023/12/06 00:23:03;;;;;;;36.47;32.75;;;;;;;;;;5110205;28;20412;-70
2023/12/06 00:25:29;;;;;;;36.38;32.67;;;;;;;;;;5109675;28;20485;-70
2023/12/06 00:27:56;;;;;;;34.35;30.92;;;;;;;;;;5090819;28;20048;-71
2023/12/06 00:30:22;;;;;;;35.50;31.80;;;;;;;;;;5074537;28;20048;-67
2023/12/06 00:32:48;;;;;;;33.92;30.42;;;;;;;;;;5092272;28;20036;-67
2023/12/06 00:35:14;;;;;;;33.30;29.88;;;;;;;;;;5069728;28;20058;-67
2023/12/06 00:37:40;;;;;;;32.47;29.10;;;14.40;80.50;;;;;;5057789;28;20067;-67
2023/12/06 00:40:07;;;;;;;33.78;30.27;;;;;;;;;;5057115;28;20649;-70
2023/12/06 00:42:33;;;;;;;30.83;27.67;;;;;;;;;;5055966;28;20120;-70
2023/12/06 00:44:59;;;;;;;32.28;28.98;;;14.40;80.40;;;;;;5078649;28;20044;-70
2023/12/06 00:47:25;;;;;;;32.15;28.75;;;;;;;;;;5061293;28;20043;-71
2023/12/06 00:49:51;;;;;;;30.20;27.08;;;14.20;80.30;;;;;;5061129;28;20055;-69
2023/12/06 00:52:17;;;;;;;30.63;27.33;;;;;;;;;;5070431;28;20040;-69
2023/12/06 00:54:43;;;;;;;30.05;26.77;;;;;;;;;;5077984;28;20141;-70
2023/12/06 00:57:09;;;;;;;28.75;25.65;;;;;;;;;;5061100;28;20040;-69
2023/12/06 00:59:35;;;;;;;27.92;25.02;;;;;;;;;;5061246;28;20106;-69
2023/12/06 01:02:01;;;;;;;27.35;24.48;;;14.40;80.50;;;;;;5079249;28;20048;-69
2023/12/06 01:04:27;;;;;;;27.85;24.95;;;;;;;;;;5057362;28;20100;-69
2023/12/06 01:06:54;;;;;;;27.35;24.45;;;;;;;;;;5076422;28;20507;-67
2023/12/06 01:09:20;;;;;;;26.52;23.70;;;;;;;;;;5097787;28;20054;-69
2023/12/06 01:11:46;;;;;;;27.38;24.55;;;;;;;;;;5073592;28;20412;-70
2023/12/06 01:14:12;;;;;;;25.20;22.52;;;;;;;;;;5115712;28;20050;-70
2023/12/06 01:16:38;;;;;;;25.33;22.63;;;;;;;;;;5064846;28;20079;-70
2023/12/06 01:19:04;;;;;;;25.25;22.65;;;;;;;;;;5064045;28;20058;-69
2023/12/06 01:21:30;;;;;;;25.08;22.38;;;;;;;;;;5058824;28;20359;-70
2023/12/06 01:23:56;;;;;;;24.30;21.70;;;;;;;;;;5053816;28;20040;-70
2023/12/06 01:26:23;;;;;;;24.73;21.83;;;;;;;;;;5060754;28;20047;-70
2023/12/06 01:28:50;;;;;;;23.20;20.63;;;;;;;;;;5077395;28;20082;-70
2023/12/06 01:31:16;;;;;;;23.23;20.73;;;;;;;;;;5095217;28;20043;-70
2023/12/06 01:33:42;;;;;;;22.63;20.00;;;;;;;;;;5076939;28;20480;-70
2023/12/06 01:36:08;;;;;;;22.48;19.88;;;;;;;;;;5077987;28;20123;-69
2023/12/06 01:38:34;;;;;;;22.20;19.83;;;;;;;;;;5095317;28;20043;-68
2023/12/06 01:41:00;;;;;;;22.33;19.92;;;;;;;;;;5060324;28;20111;-69
2023/12/06 01:43:26;;;;;;;22.27;19.67;;;;;;;;;;5095340;28;20379;-70
2023/12/06 01:45:53;;;;;;;22.05;19.10;;;;;;;;;;5060449;28;20071;-70
2023/12/06 01:48:19;;;;;;;20.60;18.48;;;;;;;;;;5077086;28;20044;-70
2023/12/06 01:50:45;;;;;;;22.88;19.75;;;;;;;;;;5068594;28;20047;-69
2023/12/06 01:53:11;;;;;;;21.52;19.05;;;;;;;;;;5061995;28;20063;-70
2023/12/06 01:55:37;;;;;;;21.17;18.73;;;;;;;;;;5059098;28;20490;-70
2023/12/06 01:58:03;;;;;;;21.70;18.88;;;;;;;;;;5076576;28;20036;-70
2023/12/06 02:00:30;;;;;;;20.80;18.52;;;;;;;;;;5069419;28;20102;-70
2023/12/06 02:02:56;;;;;;;20.58;17.80;;;;;;;;;;5052675;28;20052;-70
2023/12/06 02:05:22;;;;;;;19.85;17.52;;;;;;;;;;5059770;28;20046;-70
2023/12/06 02:07:49;;;;;;;21.10;18.58;;;;;;;;;;5076916;28;20460;-70
2023/12/06 02:10:15;;;;;;;19.65;17.33;;;;;;;;;;5095183;28;20374;-70
2023/12/06 02:12:41;;;;;;;19.70;17.60;;;;;;;;;;5098478;28;20396;-70
2023/12/06 02:15:08;;;;;;;19.55;17.05;;;;;;;;;;5089043;28;20401;-71
2023/12/06 02:17:34;;;;;;;19.55;17.25;;;;;;;;;;5094267;28;20489;-70
2023/12/06 02:20:01;;;;;;;19.90;17.80;;;;;;;;;;5098516;28;20059;-70
2023/12/06 02:22:27;;;;;;;20.83;17.20;;;;;;;;;;5076274;28;20470;-70
2023/12/06 02:24:55;;;;;;;20.27;17.48;;;13.30;79.70;;;;;;5102041;28;20483;-70
2023/12/06 02:27:22;;;;;;;20.63;17.70;;;;;;;;;;5062864;28;20051;-70
2023/12/06 02:29:48;;;;;;;20.00;17.42;;;;;;;;;;5108814;28;20046;-71
2023/12/06 02:32:14;;;;;;;18.65;16.75;;;;;;;;;;5077539;28;20044;-71
2023/12/06 02:34:40;;;;;;;19.05;17.00;;;13.20;82.40;;;;;;5059485;28;20037;-70
2023/12/06 02:37:06;;;;;;;19.15;16.70;;;;;;;;;;5059231;28;20054;-70
2023/12/06 02:39:34;;;;;;;20.45;17.55;;;13.00;80.20;;;;;;5059287;28;20047;-69
2023/12/06 02:42:00;;;;;;;19.95;17.13;;;;;;;;;;5076385;28;20413;-70
2023/12/06 02:44:26;;;;;;;19.98;16.42;;;12.90;82.80;;;;;;5076821;28;20438;-70
2023/12/06 02:46:52;;;;;;;20.35;16.42;;;;;;;;;;5068508;28;20132;-70
2023/12/06 02:49:18;;;;;;;18.92;16.40;;;;;;;;;;5083296;28;20125;-71
2023/12/06 02:51:45;;;;;;;18.73;16.50;;;;;;;;;;5078151;28;20051;-70
2023/12/06 02:54:11;;;;;;;19.33;16.55;;;;;;;;;;5079758;28;20475;-70
2023/12/06 02:56:37;;;;;;;18.60;16.60;;;;;;;;;;5078348;28;20088;-70
2023/12/06 02:59:03;;;;;;;19.17;16.63;;;;;;;;;;5112928;28;20097;-70
2023/12/06 03:01:29;;;;;;;19.23;16.73;;;;;;;;;;5068840;28;20056;-70
2023/12/06 03:03:55;;;;;;;18.27;16.38;;;;;;;;;;5100614;28;20039;-70
2023/12/06 03:06:21;;;;;;;18.42;15.95;;;;;;;;;;5095494;28;20105;-70
2023/12/06 03:08:47;;;;;;;18.45;15.88;;;;;;;;;;5085081;28;20481;-70
2023/12/06 03:11:13;;;;;;;20.67;16.55;;;;;;;;;;5058090;28;20060;-70
2023/12/06 03:13:40;;;;;;;20.05;16.50;;;;;;;;;;5094787;28;20101;-70
2023/12/06 03:16:06;;;;;;;18.02;16.10;;;;;;;;;;5078870;28;20051;-71
2023/12/06 03:18:32;;;;;;;18.60;15.63;;;;;;;;;;5087835;28;20055;-70
2023/12/06 03:20:58;;;;;;;17.45;15.07;;;;;;;;;;5074630;28;20082;-70
2023/12/06 03:23:24;;;;;;;18.00;15.63;;;;;;;;;;5078301;28;20055;-69
2023/12/06 03:25:51;;;;;;;17.42;15.50;;;;;;;;;;5075427;28;20059;-70
2023/12/06 03:28:17;;;;;;;17.33;15.43;;;;;;;;;;5074173;28;20096;-70
2023/12/06 03:30:44;;;;;;;17.48;15.20;;;;;;;;;;5064423;28;20481;-69
2023/12/06 03:33:10;;;;;;;18.05;15.35;;;;;;;;;;5057637;28;20055;-70
2023/12/06 03:35:36;;;;;;;17.83;15.45;;;;;;;;;;5059302;28;20117;-70
2023/12/06 03:38:02;;;;;;;17.90;15.25;;;;;;;;;;5092828;28;20044;-69
2023/12/06 03:40:28;;;;;;;16.95;14.55;;;;;;;;;;5058010;28;20085;-69
2023/12/06 03:42:54;;;;;;;16.75;14.82;;;;;;;;;;5066643;28;20043;-70
2023/12/06 03:45:21;;;;;;;15.75;13.57;;;;;;;;;;5061573;28;20054;-69
2023/12/06 03:47:48;;;;;;;17.85;14.15;;;;;;;;;;5061348;28;20035;-70
2023/12/06 03:50:14;;;;;;;15.43;13.32;;;;;;;;;;5093848;28;20055;-70
2023/12/06 03:52:40;;;;;;;14.98;12.65;;;;;;;;;;5059541;28;20040;-69
2023/12/06 03:55:06;;;;;;;15.45;12.75;;;;;;;;;;5059050;28;20048;-70
2023/12/06 03:57:33;;;;;;;15.88;12.52;;;;;;;;;;5041449;28;20040;-69
2023/12/06 03:59:59;;;;;;;16.58;12.75;;;;;;;;;;5057933;28;20056;-70
2023/12/06 04:02:25;;;;;;;14.93;12.05;;;;;;;;;;5060269;28;20100;-70
2023/12/06 04:04:52;;;;;;;15.52;12.98;;;;;;;;;;5060256;28;20046;-69
2023/12/06 04:07:18;;;;;;;13.68;11.70;;;;;;;;;;5078159;28;20048;-69
2023/12/06 04:09:44;;;;;;;14.63;11.45;;;;;;;;;;5086312;28;20047;-69
2023/12/06 04:12:10;;;;;;;13.38;11.10;;;;;;;;;;5077117;28;20036;-69
2023/12/06 04:14:36;;;;;;;12.80;10.93;;;;;;;;;;5099721;28;20055;-69
2023/12/06 04:17:02;;;;;;;13.43;11.15;;;;;;;;;;5113070;28;20173;-70
2023/12/06 04:19:28;;;;;;;13.07;11.20;;;;;;;;;;5095903;28;20056;-69
2023/12/06 04:21:54;;;;;;;12.98;10.55;;;;;;;;;;5096324;27;20051;-69
2023/12/06 04:24:21;;;;;;;12.52;10.32;;;;;;;;;;5114673;27;20058;-67
2023/12/06 04:26:47;;;;;;;12.27;10.30;;;;;;;;;;5088930;28;20109;-68
2023/12/06 04:29:13;;;;;;;12.95;10.15;;;;;;;;;;5078129;28;20040;-70
2023/12/06 04:31:39;;;;;;;12.55;9.95;;;;;;;;;;5078165;28;20067;-70
2023/12/06 04:34:05;;;;;;;11.75;9.98;;;;;;;;;;5077710;28;20562;-70
2023/12/06 04:36:31;;;;;;;12.77;9.90;;;;;;;;;;5115267;27;20039;-69
2023/12/06 04:38:57;;;;;;;12.27;9.68;;;;;;;;;;5116933;28;20157;-70
2023/12/06 04:41:23;;;;;;;13.32;9.55;;;;;;;;;;5081803;28;20047;-70
2023/12/06 04:43:50;;;;;;;12.43;8.98;;;;;;;;;;5107313;28;20043;-70
2023/12/06 04:46:16;;;;;;;11.35;9.13;;;;;;;;;;5077380;28;20521;-71
2023/12/06 04:48:42;;;;;;;10.77;8.68;;;;;;;;;;5061002;28;20035;-69
2023/12/06 04:51:09;;;;;;;11.25;9.00;;;;;;;;;;5103591;28;20101;-70
2023/12/06 04:53:35;;;;;;;10.88;8.57;;;;;;;;;;5106434;28;20100;-70
2023/12/06 04:56:01;;;;;;;11.18;8.25;;;;;;;;;;5112612;27;20075;-70
2023/12/06 04:58:27;;;;;;;10.93;8.63;;;;;;;;;;5085057;28;20046;-70
2023/12/06 05:00:54;;;;;;;10.82;8.18;;;;;;;;;;5077589;28;20170;-69
2023/12/06 05:03:21;;;;;;;10.82;7.72;;;;;;;;;;5095340;28;20093;-70
2023/12/06 05:05:47;;;;;;;11.23;8.18;;;;;;;;;;5095479;28;20456;-70
2023/12/06 05:08:13;;;;;;;10.82;8.35;;;;;;;;;;5095155;28;20040;-70
2023/12/06 05:10:39;;;;;;;10.10;8.07;;;;;;;;;;5092188;28;20061;-69
2023/12/06 05:13:05;;;;;;;10.32;8.00;;;;;;;;;;5114487;28;20047;-70
2023/12/06 05:15:32;;;;;;;10.15;7.80;;;;;;;;;;5064015;28;20046;-70
2023/12/06 05:17:58;;;;;;;9.80;7.60;;;;;;;;;;5064107;28;20055;-70
2023/12/06 05:20:24;;;;;;;9.45;7.53;;;;;;;;;;5068860;28;20515;-70
2023/12/06 05:22:50;;;;;;;10.02;7.85;;;;;;;;;;5059680;28;20067;-69
2023/12/06 05:25:17;;;;;;;10.60;7.65;;;;;;;;;;5071618;28;20493;-70
2023/12/06 05:27:43;;;;;;;9.85;6.30;;;;;;;;;;5095603;28;20036;-69
2023/12/06 05:30:09;;;;;;;9.88;6.43;;;;;;;;;;5060085;28;20101;-70
2023/12/06 05:32:36;;;;;;;9.13;5.65;;;;;;;;;;5080428;28;20044;-70
2023/12/06 05:35:03;;;;;;;10.18;7.40;;;;;;;;;;5068516;28;20040;-70
2023/12/06 05:37:29;;;;;;;10.80;7.47;;;;;;;;;;5076982;28;20454;-69
2023/12/06 05:39:55;;;;;;;8.85;6.78;;;;;;;;;;5076827;28;20238;-70
2023/12/06 05:42:21;;;;;;;8.93;7.03;;;;;;;;;;5060626;28;20440;-70
2023/12/06 05:44:47;;;;;;;9.60;7.07;;;;;;;;;;5096401;28;20088;-70
2023/12/06 05:47:13;;;;;;;9.68;5.80;;;;;;;;;;5095207;28;20090;-70
2023/12/06 05:49:40;;;;;;;9.40;6.93;;;;;;;;;;5090113;28;20119;-70
2023/12/06 05:52:06;;;;;;;9.13;6.85;;;;;;;;;;5044454;28;20048;-70
2023/12/06 05:54:32;;;;;;;11.30;7.13;;;;;;;;;;5072963;28;20036;-70
2023/12/06 05:56:58;;;;;;;8.82;6.85;;;;;;;;;;5062568;28;20047;-70
2023/12/06 05:59:25;;;;;;;8.32;6.40;;;;;;;;;;5059995;28;20050;-70
2023/12/06 06:01:51;;;;;;;8.23;6.30;;;;;;;;;;5060435;28;20505;-70
2023/12/06 06:04:17;;;;;;;8.98;6.70;;;;;;;;;;5065258;27;20043;-70
2023/12/06 06:06:44;;;;;;;9.38;6.65;;;;;;;;;;5076795;28;20127;-70
2023/12/06 06:09:10;;;;;;;9.60;6.95;;;;;;;;;;5107123;28;20544;-70
2023/12/06 06:11:36;;;;;;;8.75;6.55;;;;;;;;;;5115033;28;20512;-70
2023/12/06 06:14:02;;;;;;;9.85;5.70;;;;;;;;;;5094960;28;20388;-71
2023/12/06 06:16:29;;;;;;;8.45;6.50;;;;;;;;;;5107377;28;20123;-70
2023/12/06 06:18:55;;;;;;;9.63;6.75;;;;;;;;;;5071031;28;20032;-70
2023/12/06 06:21:21;;;;;;;8.77;6.53;;;;;;;;;;5084781;28;20105;-69
2023/12/06 06:23:47;;;;;;;9.65;7.15;;;;;;;;;;5115878;27;20051;-70
2023/12/06 06:26:13;;;;;;;9.07;5.68;;;;;;;;;;5099293;27;20122;-70
2023/12/06 06:28:39;;;;;;;9.32;6.95;;;;;;;;;;5075972;28;20109;-70
2023/12/06 06:31:05;;;;;;;8.68;6.50;;;;;;;;;;5075623;28;20044;-69
2023/12/06 06:33:32;;;;;;;8.75;6.65;;;;;;;;;;5082978;28;20054;-69
2023/12/06 06:35:58;;;;;;;9.10;7.13;;;;;;;;;;5069249;28;20096;-70
2023/12/06 06:38:24;;;;;;;8.18;6.18;;;;;;;;;;5095958;28;20051;-69
2023/12/06 06:40:50;;;;;;;9.70;5.57;;;;;;;;;;5096255;28;20048;-70
2023/12/06 06:43:17;;;;;;;9.07;5.22;;;;;;;;;;5099847;27;20349;-70
2023/12/06 06:45:43;;;;;;;9.25;5.35;;;;;;;;;;5113514;28;20051;-70
2023/12/06 06:48:10;;;;;;;8.45;6.65;;;;;;;;;;5094347;28;20051;-70
2023/12/06 06:50:36;;;;;;;9.75;6.80;;;;;;;;;;5095665;28;20188;-69
2023/12/06 06:53:03;;;;;;;8.45;5.20;;;;;;;;;;5095619;28;20042;-70
2023/12/06 06:55:29;;;;;;;9.27;5.57;;;;;;;;;;5093000;28;20122;-70
2023/12/06 06:57:56;;;;;;;8.45;5.38;;;;;;;;;;5112034;28;20114;-70
2023/12/06 07:00:22;;;;;;;8.88;6.60;;;;;;;;;;5098896;28;20056;-70
2023/12/06 07:02:49;;;;;;;8.45;6.68;;;;;;;;;;5058069;28;20055;-69
2023/12/06 07:05:15;;;;;;;8.25;6.55;;;11.50;86.50;;;;;;5058647;28;20060;-69
2023/12/06 07:07:41;;;;;;;8.73;6.55;;;;;;;;;;5075368;28;20048;-70
2023/12/06 07:10:09;;;;;;;9.50;6.85;;;;;;;;;;5066927;28;20079;-70
2023/12/06 07:12:36;;;;;;;9.13;6.65;;;;;;;;;;5075000;28;20052;-70
2023/12/06 07:15:02;;;;;;;8.88;6.75;;;;;;;;;;5106542;27;20520;-71
2023/12/06 07:17:29;;;;;;;9.07;6.63;;;;;;;;;;5067587;28;20043;-70
2023/12/06 07:19:56;;;;;;;8.57;6.75;;;;;;;;;;5074877;28;20079;-70
2023/12/06 07:22:22;;;;;;;10.68;6.03;;;;;;;;;;5058315;28;20043;-69
2023/12/06 07:24:48;;;;;;;8.10;5.28;;;;;;;;;;5067832;28;20047;-69
2023/12/06 07:27:15;;;;;;;9.75;6.78;;;;;;;;;;5057884;28;20048;-69
2023/12/06 07:29:42;;;;;;;9.02;6.72;;;;;;;;;;5080601;28;20548;-69
2023/12/06 07:32:09;;;;;;;9.38;7.18;;;;;;;;;;5061912;28;20111;-70
2023/12/06 07:34:35;;;;;;;10.00;5.82;;;;;;;;;;5061578;28;20087;-69
2023/12/06 07:37:01;;;;;;;9.35;6.65;;;;;;;;;;5077280;28;20100;-69
2023/12/06 07:39:27;;;;;;;10.05;5.95;;;;;;;;;;5078114;27;20481;-68
2023/12/06 07:41:53;;;;;;;8.98;6.05;;;;;;;;;;5095477;28;20116;-69
2023/12/06 07:44:22;;;;;;;8.35;6.63;;;;;;;;;;5077880;28;20086;-68
2023/12/06 07:46:48;;;;;;;8.95;6.72;;;;;;;;;;5063997;28;20349;-68
2023/12/06 07:49:15;;;;;;;9.93;6.93;;;;;;;;;;5058088;28;20042;-69
2023/12/06 07:51:41;;;;;;;8.23;6.57;;;;;;;;;;5073311;28;20081;-69
2023/12/06 07:54:08;;;;;;;9.40;6.60;;;;;;;;;;5060808;28;20035;-69
2023/12/06 07:56:35;;;;;;;9.38;6.97;;;;;;;;;;5061078;28;20047;-69
2023/12/06 07:59:02;;;;;;;9.75;7.10;;;;;;;;;;5113203;28;20070;-69
2023/12/06 08:01:31;;;;;;;9.43;6.40;;;;;;;;;;5109623;28;20113;-69
2023/12/06 08:04:03;;;;;;;9.02;5.63;;;;;;;;;;5078072;28;20393;-68
2023/12/06 08:06:31;;;;;;;9.82;5.63;;;;;;;;;;5103745;28;20378;-69
2023/12/06 08:08:57;;;;;;;14.25;5.63;;;;;;;;;;5091455;28;20122;-68
2023/12/06 08:11:24;;;;;;;11.35;6.32;;;11.50;84.30;;;;;;5094668;28;20089;-68
2023/12/06 08:13:50;;;;;;;29.48;14.90;;;;;;;;;;5094744;28;20558;-68
2023/12/06 08:16:16;;;;;;;83.80;20.23;;;;;;;;;;5105492;28;20035;-70
2023/12/06 08:18:43;;;;;;;174.27;27.33;;;;;;;;;;5077087;28;20067;-70
2023/12/06 08:21:09;;;;;;;157.32;30.90;;;;;;;;;;5069775;28;20547;-71
2023/12/06 08:23:36;;;;;;;113.10;43.20;;;;;;;;;;5088793;28;20092;-72
2023/12/06 08:26:06;;;;;;;90.65;47.45;;;;;;;;;;5077532;28;20063;-70
2023/12/06 08:28:33;;;;;;;89.40;52.03;;;;;;;;;;5111741;28;20040;-71
2023/12/06 08:30:59;;;;;;;73.57;46.60;;;;;;;;;;5094148;28;20103;-71
2023/12/06 08:33:25;;;;;;;67.03;42.50;;;;;;;;;;5092578;28;20051;-71
2023/12/06 08:35:51;;;;;;;62.70;38.28;;;12.30;87.10;;;;;;5109950;28;20043;-71
2023/12/06 08:38:17;;;;;;;63.30;36.38;;;;;;;;;;5057338;28;20048;-71
2023/12/06 08:40:44;;;;;;;66.35;41.30;;;;;;;;;;5050489;28;20126;-67
2023/12/06 08:43:10;;;;;;;59.42;41.53;;;;;;;;;;5057222;28;20043;-71
2023/12/06 08:45:36;;;;;;;54.55;38.92;;;;;;;;;;5062177;28;20067;-71
2023/12/06 08:48:04;;;;;;;52.03;36.72;;;;;;;;;;5092550;28;20051;-66
2023/12/06 08:50:30;;;;;;;52.50;34.65;;;;;;;;;;5088635;28;20032;-66
2023/12/06 08:52:56;;;;;;;44.90;32.10;;;;;;;;;;5074335;28;20040;-65
2023/12/06 08:55:22;;;;;;;40.58;32.20;;;14.00;83.60;;;;;;5107083;28;20058;-65
2023/12/06 08:57:50;;;;;;;38.65;30.80;;;;;;;;;;5073927;28;20134;-72
2023/12/06 09:00:17;;;;;;;36.20;27.70;;;;;;;;;;5053414;28;20467;-71
2023/12/06 09:02:43;;;;;;;34.63;26.23;;;;;;;;;;5058427;28;20055;-70
2023/12/06 09:05:11;;;;;;;33.38;25.70;;;;;;;;;;5094832;28;20056;-70
2023/12/06 09:07:40;;;;;;;27.33;24.42;;;;;;;;;;5081456;28;20048;-71
2023/12/06 09:10:07;;;;;;;29.85;23.75;;;;;;;;;;5076024;28;20047;-72
2023/12/06 09:12:33;;;;;;;40.25;31.10;;;;;;;;;;5060576;28;20101;-69
2023/12/06 09:14:59;;;;;;;42.92;30.85;;;;;;;;;;5064141;28;20043;-72
2023/12/06 09:17:25;;;;;;;107.20;97.75;;;;;;;;;;5077792;28;20047;-72
2023/12/06 09:19:52;;;;;;;72.47;65.68;;;;;;;;;;5060902;28;20044;-72
2023/12/06 09:22:20;;;;;;;62.70;57.08;;;;;;;;;;5078855;28;20052;-72
2023/12/06 09:24:47;;;;;;;60.20;54.70;;;;;;;;;;5099352;28;20040;-72
2023/12/06 09:27:13;;;;;;;55.15;49.60;;;;;;;;;;5095076;28;20120;-71
2023/12/06 09:29:39;;;;;;;54.45;49.53;;;;;;;;;;5114488;28;20090;-72
2023/12/06 09:32:06;;;;;;;49.67;45.20;;;;;;;;;;5107796;28;20512;-71
2023/12/06 09:34:32;;;;;;;46.22;42.25;;;;;;;;;;5094911;28;20044;-71
2023/12/06 09:36:58;;;;;;;43.33;38.97;;;;;;;;;;5076825;28;20112;-71
2023/12/06 09:39:24;;;;;;;39.78;36.17;;;;;;;;;;5091130;28;20051;-72
2023/12/06 09:41:50;;;;;;;36.42;33.00;;;;;;;;;;5099392;28;20048;-73
2023/12/06 09:44:17;;;;;;;35.45;32.28;;;;;;;;;;5076901;28;20148;-73
2023/12/06 09:46:43;;;;;;;33.58;30.15;;;;;;;;;;5095169;28;20438;-73
2023/12/06 09:49:09;;;;;;;31.70;28.90;;;;;;;;;;5098737;28;20035;-73
2023/12/06 09:51:36;;;;;;;34.78;31.40;;;;;;;;;;5072679;28;20052;-66
2023/12/06 09:54:02;;;;;;;48.85;43.97;;;;;;;;;;5113566;28;20051;-67
2023/12/06 09:56:28;;;;;;;42.10;37.90;;;;;;;;;;5114983;28;20116;-65
2023/12/06 09:58:54;;;;;;;37.67;33.75;;;15.30;80.50;;;;;;5096916;28;20050;-72
2023/12/06 10:01:20;;;;;;;35.58;32.08;;;;;;;;;;5093129;27;20052;-66
2023/12/06 10:03:46;;;;;;;32.45;29.15;;;;;;;;;;5099567;28;20044;-72
2023/12/06 10:06:13;;;;;;;29.98;26.90;;;;;;;;;;5077151;28;20059;-72
2023/12/06 10:08:40;;;;;;;29.17;26.25;;;;;;;;;;5076466;28;20393;-71
2023/12/06 10:11:07;;;;;;;26.50;23.70;;;;;;;;;;5083126;28;20075;-72
2023/12/06 10:13:37;;;;;;;25.27;22.88;;;;;;;;;;5079795;28;20042;-74
2023/12/06 10:16:03;;;;;;;24.23;21.83;;;;;;;;;;5079741;28;20043;-75
2023/12/06 10:18:30;;;;;;;23.33;21.10;;;;;;;;;;5078090;28;20047;-75
2023/12/06 10:20:56;;;;;;;21.83;19.75;;;;;;;;;;5062924;28;20044;-73
2023/12/06 10:23:22;;;;;;;21.58;19.05;;;;;;;;;;5086876;28;20397;-68
2023/12/06 10:25:50;;;;;;;36.83;32.38;;;;;;;;;;5076806;28;20098;-74
2023/12/06 10:28:17;;;;;;;128.57;104.50;;;;;;;;;;5068636;28;20453;-65
2023/12/06 10:30:44;;;;;;;95.80;82.30;;;;;;;;;;5060586;28;20503;-65
2023/12/06 10:33:10;;;;;;;65.70;58.63;;;15.40;79.90;;;;;;5090961;28;20101;-65
2023/12/06 10:35:37;;;;;;;62.83;53.90;;;;;;;;;;5057024;28;20062;-65
2023/12/06 10:38:03;;;;;;;54.00;47.92;;;15.70;79.20;;;;;;5092095;28;20047;-66
2023/12/06 10:40:29;;;;;;;51.60;46.00;;;;;;;;;;5058943;28;20047;-66
2023/12/06 10:43:04;;;;;;;47.88;42.80;;;15.70;76.40;;;;;;5089930;28;20469;-66
2023/12/06 10:45:32;;;;;;;47.25;42.15;;;;;;;;;;5078603;28;20382;-66
2023/12/06 10:47:58;;;;;;;45.58;40.58;;;;;;;;;;5077257;28;20047;-66
2023/12/06 10:50:24;;;;;;;42.20;37.67;;;15.80;78.70;;;;;;5109074;28;20122;-72
2023/12/06 10:52:51;;;;;;;40.33;35.47;;;;;;;;;;5087352;27;20372;-65
2023/12/06 10:55:19;;;;;;;44.42;34.00;;;15.60;78.70;;;;;;5060824;28;20545;-65
2023/12/06 10:57:45;;;;;;;89.20;67.85;;;15.60;78.80;;;;;;5080589;28;20039;-67
2023/12/06 11:00:11;;;;;;;153.52;62.92;;;;;;;;;;5073038;28;20063;-65
2023/12/06 11:02:38;;;;;;;281.00;65.88;;;;;;;;;;5080037;28;20115;-72
2023/12/06 11:05:05;;;;;;;179.75;54.28;;;;;;;;;;5074724;28;20059;-72
2023/12/06 11:07:40;;;;;;;164.52;49.78;;;;;;;;;;5086217;28;20111;-73
2023/12/06 11:10:27;;;;;;;136.23;46.35;;;16.00;74.70;;;;;;5092954;28;20497;-70
2023/12/06 11:13:05;;;;;;;130.23;41.70;;;16.00;74.70;;;;;;5075008;27;20476;-69
2023/12/06 11:16:09;;;;;;;125.63;40.60;;;15.80;74.70;;;;;;5090773;28;20054;-70
2023/12/06 11:18:40;;;;;;;103.18;40.08;;;;;;;;;;5094842;28;20493;-69
2023/12/06 11:21:06;;;;;;;103.97;39.97;;;;;;;;;;5094603;28;20062;-69
2023/12/06 11:23:32;;;;;;;102.72;37.42;;;;;;;;;;5080657;28;20105;-70
2023/12/06 11:25:58;;;;;;;77.85;36.05;;;;;;;;;;5060111;28;20040;-69
2023/12/06 11:28:24;;;;;;;73.80;33.45;;;;;;;;;;5113317;28;20048;-69
2023/12/06 11:30:56;;;;;;;77.35;32.72;;;;;;;;;;5092804;28;20147;-70
2023/12/06 11:37:15;;;;;;;67.63;27.85;;;;;;;;;;5111447;28;20039;-70
2023/12/06 11:39:41;;;;;;;57.83;26.85;;;;;;;;;;5105529;28;20478;-70
2023/12/06 11:42:08;;;;;;;47.10;26.27;;;;;;;;;;5068608;28;20067;-70
2023/12/06 11:44:34;;;;;;;55.42;23.85;;;;;;;;;;5074783;28;20370;-70
2023/12/06 11:47:00;;;;;;;50.20;24.15;;;;;;;;;;5093182;28;20039;-70
2023/12/06 11:49:27;;;;;;;42.17;21.38;;;;;;;;;;5077278;27;20039;-71
2023/12/06 11:52:00;;;;;;;41.08;20.35;;;;;;;;;;5101299;28;20043;-69
2023/12/06 11:54:26;;;;;;;39.10;20.33;;;;;;;;;;5070924;28;20061;-66
2023/12/06 11:56:52;;;;;;;38.50;19.67;;;15.10;80.10;;;;;;5076978;28;20039;-70
2023/12/06 11:59:18;;;;;;;43.55;20.02;;;15.00;80.00;;;;;;5077515;28;20055;-65
2023/12/06 12:01:45;;;;;;;33.42;19.02;;;;;;;;;;5059190;28;20040;-69
2023/12/06 12:04:11;;;;;;;36.53;17.92;;;;;;;;;;5071132;28;20516;-70
2023/12/06 12:06:37;;;;;;;26.52;17.30;;;15.30;80.30;;;;;;5057015;28;20046;-65
2023/12/06 12:09:03;;;;;;;32.10;17.55;;;15.20;80.20;;;;;;5076595;28;20489;-70
2023/12/06 12:11:29;;;;;;;26.85;16.38;;;;;;;;;;5081996;28;20044;-70
2023/12/06 12:13:55;;;;;;;30.75;15.55;;;;;;;;;;5086606;28;20108;-66
2023/12/06 12:16:21;;;;;;;28.02;15.02;;;;;;;;;;5088047;28;20134;-65
2023/12/06 12:18:47;;;;;;;27.92;14.57;;;15.70;79.40;;;;;;5050652;28;20493;-66
2023/12/06 12:21:16;;;;;;;22.92;13.85;;;;;;;;;;5062319;28;20132;-66
2023/12/06 12:23:42;;;;;;;18.15;13.93;;;;;;;;;;5085541;28;20192;-66
2023/12/06 12:26:16;;;;;;;19.38;13.07;;;15.70;77.40;;;;;;5077309;28;20097;-65
2023/12/06 12:28:42;;;;;;;18.58;12.77;;;15.70;78.60;;;;;;5092683;28;20113;-66
2023/12/06 12:31:11;;;;;;;22.77;12.35;;;;;;;;;;5085615;28;20083;-65
2023/12/06 12:33:37;;;;;;;17.90;12.13;;;;;;;;;;5073917;28;20048;-66
2023/12/06 12:36:03;;;;;;;16.60;12.10;;;15.30;79.90;;;;;;5073852;28;20047;-66
2023/12/06 12:38:29;;;;;;;17.45;11.05;;;15.40;80.10;;;;;;5040821;28;20048;-66
2023/12/06 12:40:55;;;;;;;15.85;10.43;;;15.40;80.30;;;;;;5068640;28;20058;-65
2023/12/06 12:43:20;;;;;;;14.95;10.60;;;15.20;79.40;;;;;;5076349;28;20042;-65
2023/12/06 12:45:46;;;;;;;16.15;10.75;;;15.00;80.30;;;;;;5077922;28;20052;-65
2023/12/06 12:48:14;;;;;;;26.67;13.20;;;14.90;78.20;;;;;;5083867;28;20047;-66
2023/12/06 12:50:40;;;;;;;37.15;29.13;;;;;;;;;;5078002;27;20043;-69
2023/12/06 12:53:06;;;;;;;30.92;24.60;;;;;;;;;;5088611;28;20118;-69
2023/12/06 12:55:33;;;;;;;31.88;24.55;;;;;;;;;;5078985;28;20048;-69
2023/12/06 12:57:59;;;;;;;22.33;16.40;;;;;;;;;;5080379;28;20043;-66
2023/12/06 13:00:26;;;;;;;34.85;12.02;;;15.40;76.90;;;;;;5096000;28;20420;-69
2023/12/06 13:02:54;;;;;;;28.83;12.88;;;15.60;76.90;;;;;;5081526;28;20040;-69
2023/12/06 13:05:21;;;;;;;22.85;10.57;;;;;;;;;;5064530;28;20047;-67
2023/12/06 13:07:55;;;;;;;25.48;11.77;;;;;;;;;;5059471;28;20123;-69
2023/12/06 13:10:22;;;;;;;31.33;12.90;;;;;;;;;;5063766;28;20047;-68
2023/12/06 13:12:49;;;;;;;36.40;13.10;;;;;;;;;;5067783;28;20047;-68
2023/12/06 13:15:16;;;;;;;23.92;12.18;;;;;;;;;;5079688;28;20142;-68
2023/12/06 13:17:42;;;;;;;25.60;12.07;;;;;;;;;;5076298;28;20047;-69
2023/12/06 13:20:09;;;;;;;20.83;11.65;;;;;;;;;;5083540;28;20386;-75
2023/12/06 13:22:35;;;;;;;22.10;12.38;;;;;;;;;;5060594;28;20447;-74
2023/12/06 13:25:03;;;;;;;19.40;11.98;;;;;;;;;;5076133;28;20047;-75
2023/12/06 13:27:29;;;;;;;22.20;12.43;;;;;;;;;;5097535;28;20047;-74
2023/12/06 13:29:55;;;;;;;20.42;11.70;;;;;;;;;;5092952;28;20133;-75
2023/12/06 13:32:22;;;;;;;16.90;11.40;;;;;;;;;;5076243;28;20044;-78
2023/12/06 13:34:48;;;;;;;14.80;10.57;;;;;;;;;;5060457;28;20039;-71
2023/12/06 13:37:14;;;;;;;16.73;9.57;;;;;;;;;;5110506;28;20052;-70
2023/12/06 13:39:42;;;;;;;13.98;9.95;;;;;;;;;;5079046;28;20054;-70
2023/12/06 13:42:08;;;;;;;13.43;9.43;;;;;;;;;;5115133;28;20118;-68
2023/12/06 13:44:34;;;;;;;13.63;9.27;;;;;;;;;;5080323;28;20378;-69
2023/12/06 13:47:00;;;;;;;14.05;9.55;;;;;;;;;;5092858;28;20058;-69
2023/12/06 13:49:28;;;;;;;16.20;9.93;;;;;;;;;;5083165;28;20126;-69
2023/12/06 13:51:54;;;;;;;13.27;9.40;;;;;;;;;;5112995;28;20058;-69
2023/12/06 13:54:20;;;;;;;14.48;9.95;;;;;;;;;;5096714;28;20052;-70
2023/12/06 13:56:46;;;;;;;14.90;10.07;;;;;;;;;;5079724;28;20039;-69
2023/12/06 13:59:13;;;;;;;11.77;8.60;;;;;;;;;;5105736;28;20048;-69
2023/12/06 14:01:40;;;;;;;15.93;9.18;;;;;;;;;;5068117;28;20074;-69
2023/12/06 14:04:06;;;;;;;23.83;21.38;;;;;;;;;;5090300;28;20060;-75
2023/12/06 14:06:32;;;;;;;92.07;83.72;;;;;;;;;;5079199;28;20028;-75
2023/12/06 14:08:58;;;;;;;57.90;51.80;;;;;;;;;;5096647;28;20063;-65